createdAt,value
2018-12-24T00:03:08.224Z,101352.13
2018-12-24T00:05:37.866Z,101351.22
2018-12-24T00:11:01.951Z,101350.70
2018-12-24T00:13:31.647Z,101357.48
2018-12-24T00:16:01.268Z,101359.00
2018-12-24T00:18:31.099Z,101353.73
2018-12-24T00:21:00.779Z,101357.34
2018-12-24T00:23:30.414Z,101362.23
2018-12-24T00:26:00.244Z,101362.23
2018-12-24T00:28:30.037Z,101367.88
2018-12-24T00:30:59.695Z,101366.97
2018-12-24T00:33:29.540Z,101369.68
2018-12-24T00:35:59.252Z,101376.61
2018-12-24T00:38:28.930Z,101369.30
2018-12-24T00:40:58.659Z,101365.45
2018-12-24T00:43:28.360Z,101365.45
2018-12-24T00:45:57.988Z,101374.04
2018-12-24T00:48:27.828Z,101375.33
2018-12-24T00:50:57.542Z,101380.69
2018-12-24T00:53:27.159Z,101376.31
2018-12-24T00:55:56.889Z,101386.05
2018-12-24T00:58:26.573Z,101378.36
2018-12-24T01:00:56.194Z,101380.16
2018-12-24T01:03:25.901Z,101384.00
2018-12-24T01:05:55.555Z,101382.05
2018-12-24T01:08:25.204Z,101383.57
2018-12-24T01:10:55.332Z,101391.49
2018-12-24T01:13:25.010Z,101388.27
2018-12-24T01:15:54.654Z,101391.34
2018-12-24T01:18:24.639Z,101386.22
2018-12-24T01:20:54.347Z,101393.15
2018-12-24T01:23:23.978Z,101394.95
2018-12-24T01:25:53.698Z,101396.76
2018-12-24T01:28:42.311Z,101400.75
2018-12-24T01:31:12.232Z,101399.23
2018-12-24T01:33:41.888Z,101400.37
2018-12-24T01:36:12.112Z,101408.81
2018-12-24T01:38:41.824Z,101409.56
2018-12-24T01:41:11.468Z,101416.11
2018-12-24T01:43:41.244Z,101418.30
2018-12-24T01:46:11.208Z,101421.99
2018-12-24T01:48:59.835Z,101427.26
2018-12-24T01:51:48.518Z,101420.71
2018-12-24T01:54:18.201Z,101423.42
2018-12-24T01:56:47.817Z,101426.97
2018-12-24T01:59:17.639Z,101427.35
2018-12-24T02:01:47.313Z,101427.73
2018-12-24T02:04:16.954Z,101432.33
2018-12-24T02:06:46.876Z,101430.76
2018-12-24T02:09:16.556Z,101429.86
2018-12-24T02:11:46.175Z,101433.03
2018-12-24T02:14:15.881Z,101432.12
2018-12-24T02:16:45.524Z,101432.12
2018-12-24T02:19:15.218Z,101435.59
2018-12-24T02:21:45.234Z,101434.30
2018-12-24T02:24:17.123Z,101436.87
2018-12-24T02:26:47.016Z,101441.76
2018-12-24T02:29:35.642Z,101441.23
2018-12-24T02:32:05.455Z,101439.05
2018-12-24T02:34:53.961Z,101444.55
2018-12-24T02:37:23.698Z,101440.94
2018-12-24T02:39:53.327Z,101447.87
2018-12-24T02:42:23.000Z,101442.52
2018-12-24T02:44:52.981Z,101435.97
2018-12-24T02:47:22.614Z,101441.47
2018-12-24T02:49:52.305Z,101443.50
2018-12-24T02:52:22.518Z,101444.55
2018-12-24T02:54:52.162Z,101445.08
2018-12-24T02:57:21.838Z,101450.72
2018-12-24T02:59:51.577Z,101451.25
2018-12-24T03:02:21.255Z,101453.05
2018-12-24T03:04:50.939Z,101451.77
2018-12-24T03:07:20.761Z,101446.13
2018-12-24T03:09:50.398Z,101452.00
2018-12-24T03:12:20.023Z,101454.42
2018-12-24T03:14:49.754Z,101456.22
2018-12-24T03:17:19.374Z,101452.38
2018-12-24T03:19:49.064Z,101452.23
2018-12-24T03:22:18.912Z,101450.95
2018-12-24T03:24:48.552Z,101456.69
2018-12-24T03:27:18.239Z,101464.52
2018-12-24T03:29:48.039Z,101458.64
2018-12-24T03:32:17.689Z,101464.66
2018-12-24T03:34:47.428Z,101461.95
2018-12-24T03:37:17.271Z,101467.45
2018-12-24T03:39:46.937Z,101469.26
2018-12-24T03:42:16.575Z,101466.17
2018-12-24T03:44:46.291Z,101457.97
2018-12-24T03:47:15.948Z,101465.13
2018-12-24T03:49:45.602Z,101464.75
2018-12-24T03:52:15.428Z,101467.69
2018-12-24T03:54:45.082Z,101465.65
2018-12-24T03:57:14.867Z,101468.50
2018-12-24T03:59:44.677Z,101468.50
2018-12-24T04:02:14.326Z,101464.81
2018-12-24T04:04:43.974Z,101464.58
2018-12-24T04:10:02.452Z,101468.42
2018-12-24T04:12:32.138Z,101469.17
2018-12-24T04:15:01.770Z,101473.16
2018-12-24T04:17:50.332Z,101471.13
2018-12-24T04:20:20.325Z,101469.84
2018-12-24T04:22:49.974Z,101472.55
2018-12-24T04:25:19.869Z,101475.41
2018-12-24T04:27:49.503Z,101475.93
2018-12-24T04:30:19.138Z,101478.48
2018-12-24T04:32:48.951Z,101478.78
2018-12-24T04:35:18.690Z,101477.50
2018-12-24T04:37:48.336Z,101472.61
2018-12-24T04:40:18.303Z,101474.56
2018-12-24T04:42:47.957Z,101479.31
2018-12-24T04:45:17.603Z,101480.36
2018-12-24T04:47:47.644Z,101481.63
2018-12-24T04:50:17.276Z,101475.38
2018-12-24T04:52:46.919Z,101478.84
2018-12-24T04:55:16.717Z,101477.70
2018-12-24T04:57:46.360Z,101479.13
2018-12-24T05:00:16.059Z,101481.31
2018-12-24T05:02:45.828Z,101489.15
2018-12-24T05:05:15.463Z,101488.63
2018-12-24T05:07:45.161Z,101489.00
2018-12-24T05:10:14.919Z,101483.64
2018-12-24T05:12:44.561Z,101485.83
2018-12-24T05:15:14.209Z,101491.09
2018-12-24T05:17:44.160Z,101492.76
2018-12-24T05:20:13.789Z,101491.48
2018-12-24T05:22:43.443Z,101491.86
2018-12-24T05:25:13.198Z,101492.00
2018-12-24T05:27:42.979Z,101500.21
2018-12-24T05:30:12.627Z,101500.83
2018-12-24T05:32:42.545Z,101509.41
2018-12-24T05:35:12.187Z,101504.90
2018-12-24T05:37:41.950Z,101504.75
2018-12-24T05:40:11.711Z,101513.34
2018-12-24T05:43:00.362Z,101479.95
2018-12-24T05:45:30.135Z,101518.84
2018-12-24T05:47:59.803Z,101526.38
2018-12-24T05:50:29.531Z,101520.30
2018-12-24T05:52:59.215Z,101519.24
2018-12-24T05:55:28.848Z,101513.75
2018-12-24T05:57:58.773Z,101517.97
2018-12-24T06:00:28.438Z,101519.39
2018-12-24T06:02:58.079Z,101519.16
2018-12-24T06:05:27.790Z,101521.72
2018-12-24T06:07:57.531Z,101522.86
2018-12-24T06:10:27.168Z,101523.61
2018-12-24T06:12:57.113Z,101531.30
2018-12-24T06:15:26.763Z,101528.73
2018-12-24T06:17:57.673Z,101537.55
2018-12-24T06:20:28.091Z,101541.02
2018-12-24T06:22:57.745Z,101547.42
2018-12-24T06:25:28.432Z,101548.70
2018-12-24T06:27:58.188Z,101551.80
2018-12-24T06:30:28.060Z,101560.69
2018-12-24T06:32:57.696Z,101565.06
2018-12-24T06:35:27.482Z,101574.55
2018-12-24T06:37:57.752Z,101577.11
2018-12-24T06:40:27.376Z,101575.75
2018-12-24T06:42:57.313Z,101577.03
2018-12-24T06:45:27.017Z,101572.81
2018-12-24T06:47:56.627Z,101587.42
2018-12-24T06:50:26.424Z,101581.02
2018-12-24T06:52:56.063Z,101589.77
2018-12-24T06:55:25.717Z,101586.22
2018-12-24T06:57:55.517Z,101584.78
2018-12-24T07:00:25.147Z,101588.02
2018-12-24T07:02:54.806Z,101599.32
2018-12-24T07:05:24.844Z,101598.19
2018-12-24T07:07:54.449Z,101596.75
2018-12-24T07:10:24.064Z,101597.52
2018-12-24T07:12:53.932Z,101603.54
2018-12-24T07:15:23.569Z,101610.33
2018-12-24T07:17:53.218Z,101605.73
2018-12-24T07:20:23.163Z,101607.53
2018-12-24T07:22:52.812Z,101610.24
2018-12-24T07:25:29.723Z,101610.09
2018-12-24T07:27:59.356Z,101605.88
2018-12-24T07:30:28.984Z,101612.80
2018-12-24T07:32:58.895Z,101619.13
2018-12-24T07:35:28.534Z,101622.22
2018-12-24T07:37:58.175Z,101618.14
2018-12-24T07:40:27.999Z,101616.19
2018-12-24T07:42:57.670Z,101624.93
2018-12-24T07:45:27.311Z,101622.37
2018-12-24T07:47:57.126Z,101632.99
2018-12-24T07:50:26.826Z,101630.81
2018-12-24T07:52:56.445Z,101629.61
2018-12-24T07:55:26.367Z,101631.64
2018-12-24T07:57:56.004Z,101628.64
2018-12-24T08:00:25.810Z,101634.14
2018-12-24T08:02:55.688Z,101636.93
2018-12-24T08:05:25.295Z,100952.84
2018-12-24T08:07:54.951Z,101647.41
2018-12-24T08:10:24.826Z,101645.30
2018-12-24T08:12:54.450Z,101643.34
2018-12-24T08:15:24.083Z,101643.41
2018-12-24T08:17:53.837Z,101651.48
2018-12-24T08:20:23.458Z,101650.05
2018-12-24T08:22:53.203Z,101648.77
2018-12-24T08:25:22.961Z,101652.45
2018-12-24T08:27:52.593Z,101655.92
2018-12-24T08:30:22.238Z,101658.48
2018-12-24T08:32:52.353Z,101663.53
2018-12-24T08:35:21.962Z,101657.80
2018-12-24T08:37:51.595Z,101672.78
2018-12-24T08:40:21.364Z,101677.83
2018-12-24T08:42:51.098Z,101677.89
2018-12-24T08:45:20.745Z,101679.38
2018-12-24T08:47:50.559Z,101682.67
2018-12-24T08:50:20.191Z,101682.88
2018-12-24T08:52:49.828Z,101683.38
2018-12-24T08:55:19.715Z,101682.38
2018-12-24T08:57:49.399Z,101681.00
2018-12-24T09:00:37.949Z,101684.97
2018-12-24T09:03:07.586Z,101684.19
2018-12-24T09:05:37.220Z,101682.08
2018-12-24T09:08:07.085Z,101683.25
2018-12-24T09:10:36.729Z,101684.10
2018-12-24T09:13:06.364Z,101690.13
2018-12-24T09:15:36.231Z,101690.55
2018-12-24T09:18:05.867Z,101693.38
2018-12-24T09:20:35.488Z,101687.41
2018-12-24T09:23:05.452Z,101682.83
2018-12-24T09:25:35.099Z,101669.62
2018-12-24T09:30:54.344Z,101671.58
2018-12-24T09:33:23.979Z,101660.85
2018-12-24T09:35:53.759Z,101667.55
2018-12-24T09:38:23.684Z,101675.95
2018-12-24T09:43:52.455Z,101669.12
2018-12-24T09:46:22.128Z,101667.58
2018-12-24T09:48:51.788Z,101666.30
2018-12-24T09:56:33.730Z,101675.64
2018-12-24T09:59:03.475Z,101676.05
2018-12-24T10:01:33.135Z,101670.36
2018-12-24T10:04:12.220Z,101672.02
2018-12-24T10:10:14.328Z,101662.40
2018-12-24T10:12:43.999Z,101664.82
2018-12-24T10:15:13.639Z,101665.88
2018-12-24T10:18:02.300Z,101675.28
2018-12-24T10:20:32.378Z,101681.00
2018-12-24T10:23:02.038Z,101683.31
2018-12-24T10:25:32.184Z,101680.63
2018-12-24T10:28:01.819Z,101685.19
2018-12-24T10:30:31.489Z,101682.00
2018-12-24T10:33:01.239Z,101682.67
2018-12-24T10:35:30.881Z,101689.12
2018-12-24T10:41:11.216Z,101689.27
2018-12-24T10:43:40.867Z,101688.09
2018-12-24T10:46:10.618Z,101685.59
2018-12-24T10:48:40.442Z,101691.67
2018-12-24T10:51:10.162Z,101691.98
2018-12-24T10:53:39.810Z,101695.50
2018-12-24T10:56:09.602Z,101681.77
2018-12-24T10:58:39.265Z,101679.68
2018-12-24T11:01:08.890Z,101669.30
2018-12-24T11:03:38.799Z,101665.36
2018-12-24T11:06:08.599Z,101667.11
2018-12-24T11:08:38.256Z,101666.78
2018-12-24T11:11:26.996Z,101668.75
2018-12-24T11:13:56.637Z,101667.70
2018-12-24T11:16:26.245Z,101668.95
2018-12-24T11:18:56.037Z,101678.05
2018-12-24T11:21:26.083Z,101678.22
2018-12-24T11:23:55.722Z,101678.91
2018-12-24T11:26:25.620Z,101668.72
2018-12-24T11:28:55.252Z,101679.17
2018-12-24T11:31:24.872Z,101682.52
2018-12-24T11:33:54.771Z,101680.33
2018-12-24T11:36:27.129Z,101690.70
2018-12-24T11:38:57.029Z,101689.30
2018-12-24T11:41:26.709Z,101683.30
2018-12-24T11:43:56.338Z,101676.55
2018-12-24T11:46:26.570Z,101675.23
2018-12-24T11:48:56.373Z,101669.34
2018-12-24T11:51:26.259Z,101682.80
2018-12-24T11:53:56.052Z,101687.53
2018-12-24T11:56:25.730Z,101681.85
2018-12-24T11:58:55.400Z,101681.11
2018-12-24T12:01:25.124Z,101686.80
2018-12-24T12:03:54.885Z,101685.72
2018-12-24T12:06:24.535Z,101678.06
2018-12-24T12:08:54.568Z,101678.27
2018-12-24T12:11:24.261Z,101664.48
2018-12-24T12:13:53.903Z,101661.53
2018-12-24T12:16:23.803Z,101657.59
2018-12-24T12:18:53.460Z,101659.34
2018-12-24T12:21:23.079Z,101658.22
2018-12-24T12:23:53.237Z,101660.13
2018-12-24T12:26:22.912Z,101662.34
2018-12-24T12:28:52.544Z,101655.39
2018-12-24T12:31:22.489Z,101665.59
2018-12-24T12:33:52.156Z,101661.75
2018-12-24T12:36:21.778Z,101671.27
2018-12-24T12:38:51.699Z,101686.33
2018-12-24T12:41:21.473Z,101688.92
2018-12-24T12:43:51.081Z,101679.41
2018-12-24T12:46:20.808Z,101655.80
2018-12-24T12:48:50.490Z,101691.66
2018-12-24T12:51:20.227Z,101693.69
2018-12-24T12:53:49.976Z,101694.22
2018-12-24T12:56:19.899Z,101687.08
2018-12-24T12:58:49.529Z,101675.38
2018-12-24T13:01:19.407Z,101673.30
2018-12-24T13:03:49.074Z,101672.12
2018-12-24T13:06:18.687Z,101668.33
2018-12-24T13:08:48.719Z,101668.16
2018-12-24T13:11:18.491Z,101659.45
2018-12-24T13:13:48.117Z,101662.71
2018-12-24T13:16:18.053Z,101663.95
2018-12-24T13:18:47.734Z,101673.16
2018-12-24T13:21:36.263Z,101659.58
2018-12-24T13:24:05.944Z,101659.28
2018-12-24T13:26:35.834Z,101661.50
2018-12-24T13:29:05.747Z,101674.08
2018-12-24T13:31:35.410Z,101663.38
2018-12-24T13:34:05.062Z,101669.75
2018-12-24T13:36:34.808Z,101667.77
2018-12-24T13:42:00.736Z,101666.16
2018-12-24T13:44:30.383Z,101664.92
2018-12-24T13:47:00.015Z,101665.45
2018-12-24T13:49:29.895Z,101665.66
2018-12-24T13:51:59.605Z,101668.41
2018-12-24T13:54:29.264Z,101675.75
2018-12-24T13:56:59.490Z,101667.80
2018-12-24T13:59:29.176Z,101670.02
2018-12-24T14:02:18.566Z,101680.41
2018-12-24T14:04:48.216Z,101680.06
2018-12-24T14:07:18.812Z,101670.08
2018-12-24T14:09:49.542Z,101672.82
2018-12-24T14:12:19.470Z,101671.55
2018-12-24T14:14:49.068Z,101673.56
2018-12-24T14:17:19.080Z,101671.58
2018-12-24T14:19:48.701Z,101677.04
2018-12-24T14:22:18.332Z,101677.04
2018-12-24T14:24:48.206Z,101673.42
2018-12-24T14:27:17.955Z,101667.98
2018-12-24T14:29:47.609Z,101667.27
2018-12-24T14:32:17.550Z,101671.09
2018-12-24T14:34:47.177Z,101672.20
2018-12-24T14:37:16.801Z,101672.39
2018-12-24T14:39:46.767Z,101668.23
2018-12-24T14:45:05.459Z,101667.86
2018-12-24T14:47:35.961Z,101663.67
2018-12-24T14:52:54.958Z,101664.95
2018-12-24T14:55:24.670Z,101670.61
2018-12-24T15:00:43.335Z,101664.44
2018-12-24T15:03:13.086Z,101664.80
2018-12-24T15:05:42.952Z,101660.62
2018-12-24T15:08:12.869Z,101662.43
2018-12-24T15:10:42.781Z,101664.61
2018-12-24T15:13:13.995Z,101654.95
2018-12-24T15:15:43.978Z,101664.78
2018-12-24T15:18:32.805Z,101660.59
2018-12-24T15:21:02.510Z,101666.22
2018-12-24T15:23:32.161Z,101666.77
2018-12-24T15:26:01.964Z,101662.57
2018-12-24T15:28:31.664Z,101660.56
2018-12-24T15:31:01.563Z,101661.27
2018-12-24T15:33:31.564Z,101657.65
2018-12-24T15:36:01.239Z,101657.65
2018-12-24T15:38:30.880Z,101662.55
2018-12-24T15:41:00.808Z,101656.91
2018-12-24T15:43:30.567Z,101649.64
2018-12-24T15:46:00.358Z,101645.81
2018-12-24T15:48:30.090Z,101641.62
2018-12-24T15:51:19.143Z,101639.64
2018-12-24T15:53:48.974Z,101628.91
2018-12-24T15:56:18.644Z,101622.38
2018-12-24T15:58:48.313Z,101618.19
2018-12-24T16:01:18.134Z,101620.20
2018-12-24T16:03:47.766Z,101617.11
2018-12-24T16:06:17.460Z,101621.11
2018-12-24T16:08:47.489Z,101620.56
2018-12-24T16:11:17.126Z,101625.69
2018-12-24T16:13:46.816Z,101613.16
2018-12-24T16:16:16.904Z,101621.16
2018-12-24T16:18:46.583Z,101613.89
2018-12-24T16:21:16.300Z,101611.52
2018-12-24T16:23:46.248Z,101615.87
2018-12-24T16:29:11.865Z,101617.48
2018-12-24T16:31:41.529Z,101614.56
2018-12-24T16:34:11.314Z,101621.84
2018-12-24T16:36:41.076Z,101624.02
2018-12-24T16:39:10.695Z,101619.46
2018-12-24T16:41:59.416Z,101620.17
2018-12-24T16:44:29.052Z,101618.52
2018-12-24T16:46:59.431Z,101615.61
2018-12-24T16:49:30.335Z,101599.22
2018-12-24T16:51:59.970Z,101601.73
2018-12-24T16:54:41.242Z,101612.27
2018-12-24T16:57:10.902Z,101605.49
2018-12-24T16:59:40.541Z,101603.85
2018-12-24T17:02:10.484Z,101597.48
2018-12-24T17:04:40.082Z,101592.18
2018-12-24T17:07:09.722Z,101597.24
2018-12-24T17:09:40.524Z,101587.05
2018-12-24T17:12:10.164Z,101581.58
2018-12-24T17:14:39.796Z,101583.02
2018-12-24T17:17:09.735Z,101575.91
2018-12-24T17:19:39.370Z,101573.70
2018-12-24T17:22:09.001Z,101568.94
2018-12-24T17:24:38.776Z,101573.63
2018-12-24T17:27:08.879Z,101579.59
2018-12-24T17:29:38.511Z,101579.39
2018-12-24T17:34:43.222Z,101588.64
2018-12-24T17:37:31.785Z,101586.09
2018-12-24T17:40:01.528Z,101582.06
2018-12-24T17:42:31.175Z,101571.30
2018-12-24T17:45:00.839Z,101573.27
2018-12-24T17:47:30.666Z,101569.77
2018-12-24T17:50:00.300Z,101570.80
2018-12-24T17:52:29.971Z,101566.94
2018-12-24T17:54:59.860Z,101568.87
2018-12-24T17:57:32.416Z,101575.36
2018-12-24T18:00:02.202Z,101573.84
2018-12-24T18:02:32.047Z,101570.34
2018-12-24T18:05:01.668Z,101564.28
2018-12-24T18:07:31.424Z,101562.97
2018-12-24T18:10:01.051Z,101556.17
2018-12-24T18:15:19.434Z,101555.70
2018-12-24T18:17:49.090Z,101539.97
2018-12-24T18:20:18.718Z,101544.81
2018-12-24T18:22:48.488Z,101542.22
2018-12-24T18:28:27.478Z,101546.42
2018-12-24T18:30:57.558Z,101542.17
2018-12-24T18:33:28.968Z,101544.50
2018-12-24T18:35:58.620Z,101540.47
2018-12-24T18:38:28.266Z,101553.55
2018-12-24T18:40:58.105Z,101550.94
2018-12-24T18:43:27.781Z,101551.31
2018-12-24T18:45:57.420Z,101549.83
2018-12-24T18:48:27.539Z,101547.77
2018-12-24T18:50:57.211Z,101546.65
2018-12-24T18:53:26.848Z,101553.56
2018-12-24T18:55:56.584Z,101543.88
2018-12-24T18:58:26.355Z,101556.81
2018-12-24T19:00:55.978Z,101535.84
2018-12-24T19:03:25.703Z,101535.10
2018-12-24T19:05:55.411Z,101533.61
2018-12-24T19:08:25.067Z,101527.76
2018-12-24T19:10:54.796Z,101526.27
2018-12-24T19:13:24.509Z,101529.14
2018-12-24T19:15:54.177Z,101526.21
2018-12-24T19:18:42.948Z,101522.53
2018-12-24T19:21:12.577Z,101524.50
2018-12-24T19:23:42.201Z,101520.30
2018-12-24T19:26:11.984Z,101520.45
2018-12-24T19:28:41.614Z,101528.64
2018-12-24T19:31:13.691Z,101520.61
2018-12-24T19:33:43.338Z,101508.90
2018-12-24T19:36:13.067Z,101510.34
2018-12-24T19:38:42.921Z,101500.65
2018-12-24T19:41:12.599Z,101499.52
2018-12-24T19:43:42.231Z,101501.86
2018-12-24T19:46:11.968Z,101497.81
2018-12-24T19:48:41.624Z,101499.78
2018-12-24T19:51:11.235Z,101493.55
2018-12-24T19:53:40.973Z,101492.95
2018-12-24T19:56:10.770Z,101493.64
2018-12-24T19:58:40.422Z,101479.36
2018-12-24T20:01:21.714Z,101498.84
2018-12-24T20:03:51.355Z,101496.59
2018-12-24T20:06:21.008Z,101490.36
2018-12-24T20:08:50.770Z,101490.30
2018-12-24T20:11:20.427Z,101486.39
2018-12-24T20:13:50.035Z,101483.24
2018-12-24T20:19:13.995Z,101473.48
2018-12-24T20:21:43.670Z,101470.17
2018-12-24T20:24:13.287Z,101467.24
2018-12-24T20:26:43.138Z,101467.39
2018-12-24T20:29:12.913Z,101458.19
2018-12-24T20:31:42.525Z,101461.43
2018-12-24T20:34:12.372Z,101459.55
2018-12-24T20:36:42.043Z,101455.50
2018-12-24T20:39:11.964Z,101448.50
2018-12-24T20:41:41.910Z,101443.17
2018-12-24T20:44:30.910Z,101431.97
2018-12-24T20:47:01.002Z,101427.68
2018-12-24T20:49:30.617Z,101424.67
2018-12-24T20:54:36.056Z,101411.36
2018-12-24T20:57:05.733Z,101411.28
2018-12-24T21:02:44.660Z,101391.27
2018-12-24T21:05:14.334Z,101380.58
2018-12-24T21:07:43.974Z,101370.64
2018-12-24T21:10:13.844Z,101377.18
2018-12-24T21:12:43.519Z,101381.69
2018-12-24T21:15:13.185Z,101367.02
2018-12-24T21:17:42.958Z,101367.92
2018-12-24T21:20:12.705Z,101361.67
2018-12-24T21:22:42.337Z,101351.06
2018-12-24T21:25:12.202Z,101351.58
2018-12-24T21:27:41.835Z,101348.64
2018-12-24T21:30:30.415Z,101356.84
2018-12-24T21:33:00.086Z,101362.48
2018-12-24T21:35:29.708Z,101349.70
2018-12-24T21:37:59.535Z,101365.72
2018-12-24T21:40:29.162Z,101365.11
2018-12-24T21:42:58.822Z,101361.42
2018-12-24T21:45:28.587Z,101359.00
2018-12-24T21:47:58.250Z,101346.20
2018-12-24T21:50:28.131Z,101345.59
2018-12-24T21:52:57.979Z,101334.98
2018-12-24T21:55:27.592Z,101332.20
2018-12-24T21:57:57.223Z,101333.91
2018-12-24T22:00:27.074Z,101331.41
2018-12-24T22:02:56.712Z,101331.46
2018-12-24T22:05:26.498Z,101344.46
2018-12-24T22:07:56.399Z,101319.91
2018-12-24T22:10:26.021Z,101319.44
2018-12-24T22:13:14.782Z,101316.64
2018-12-24T22:15:44.754Z,101314.80
2018-12-24T22:18:14.396Z,101302.56
2018-12-24T22:20:44.272Z,101294.02
2018-12-24T22:23:13.895Z,101292.41
2018-12-24T22:25:43.521Z,101287.70
2018-12-24T22:28:13.328Z,101286.61
2018-12-24T22:30:42.988Z,101281.24
2018-12-24T22:33:12.627Z,101274.36
2018-12-24T22:35:42.686Z,101267.09
2018-12-24T22:38:12.278Z,101267.51
2018-12-24T22:40:41.921Z,101273.05
2018-12-24T22:43:30.657Z,101270.52
2018-12-24T22:46:00.285Z,101255.42
2018-12-24T22:48:31.216Z,101261.86
2018-12-24T22:51:01.802Z,101264.84
2018-12-24T22:53:50.257Z,101255.52
2018-12-24T22:56:20.276Z,101249.38
2018-12-24T22:58:49.973Z,101240.69
2018-12-24T23:01:19.668Z,101013.27
2018-12-24T23:03:49.513Z,101229.06
2018-12-24T23:06:32.440Z,101234.98
2018-12-24T23:09:02.343Z,101232.69
2018-12-24T23:11:31.977Z,101229.11
2018-12-24T23:14:01.618Z,101223.73
2018-12-24T23:16:31.467Z,101219.63
2018-12-24T23:19:01.086Z,101228.50
2018-12-24T23:21:30.712Z,101219.27
2018-12-24T23:24:00.910Z,101219.55
2018-12-24T23:26:30.558Z,101213.27
2018-12-24T23:29:00.189Z,101212.50
2018-12-24T23:31:32.059Z,101206.73
2018-12-24T23:34:01.685Z,101200.45
2018-12-24T23:36:31.485Z,101203.28
2018-12-24T23:39:01.229Z,101188.79
2018-12-24T23:41:30.861Z,101191.62
2018-12-24T23:44:00.560Z,101189.57
2018-12-24T23:46:30.212Z,101191.89
2018-12-24T23:48:59.834Z,101195.73
2018-12-24T23:54:18.389Z,101185.73
2018-12-24T23:56:48.012Z,101012.65
2018-12-24T23:59:17.719Z,101178.18
